createdAt,value
2022-08-26T00:02:14.122Z,77.10
2022-08-26T00:05:18.310Z,77.31
2022-08-26T00:08:21.816Z,76.48
2022-08-26T00:11:26.287Z,76.62
2022-08-26T00:14:31.151Z,76.04
2022-08-26T00:17:35.304Z,75.78
2022-08-26T00:20:39.439Z,76.27
2022-08-26T00:23:46.080Z,77.18
2022-08-26T00:26:49.698Z,76.13
2022-08-26T00:29:53.763Z,75.86
2022-08-26T00:32:59.424Z,76.58
2022-08-26T00:36:02.530Z,76.51
2022-08-26T00:39:07.117Z,77.15
2022-08-26T00:42:10.162Z,77.85
2022-08-26T00:45:14.332Z,77.14
2022-08-26T00:48:21.395Z,77.37
2022-08-26T00:51:29.753Z,77.67
2022-08-26T00:54:37.567Z,77.67
2022-08-26T00:57:46.142Z,77.62
2022-08-26T01:00:49.059Z,77.87
2022-08-26T01:03:52.543Z,78.33
2022-08-26T01:06:55.604Z,78.83
2022-08-26T01:10:00.849Z,78.55
2022-08-26T01:13:10.120Z,78.33
2022-08-26T01:16:15.951Z,78.30
2022-08-26T01:19:24.997Z,78.44
2022-08-26T01:22:38.696Z,78.71
2022-08-26T01:26:05.393Z,78.48
2022-08-26T01:29:13.642Z,79.57
2022-08-26T01:32:19.859Z,80.71
2022-08-26T01:35:23.128Z,80.26
2022-08-26T01:38:27.804Z,79.70
2022-08-26T01:41:36.515Z,80.30
2022-08-26T01:44:46.146Z,78.59
2022-08-26T01:47:50.511Z,79.11
2022-08-26T01:51:03.465Z,78.64
2022-08-26T01:54:11.803Z,80.06
2022-08-26T01:57:17.507Z,79.47
2022-08-26T02:00:20.125Z,80.82
2022-08-26T02:03:24.045Z,81.49
2022-08-26T02:06:27.429Z,81.20
2022-08-26T02:09:30.808Z,80.65
2022-08-26T02:12:33.929Z,80.76
2022-08-26T02:15:37.822Z,81.33
2022-08-26T02:18:42.198Z,82.88
2022-08-26T02:21:51.305Z,82.60
2022-08-26T02:25:13.749Z,82.77
2022-08-26T02:28:17.698Z,83.43
2022-08-26T02:31:23.851Z,83.45
2022-08-26T02:34:32.057Z,83.71
2022-08-26T02:37:35.462Z,82.89
2022-08-26T02:40:41.373Z,83.96
2022-08-26T02:43:44.634Z,84.39
2022-08-26T02:46:47.563Z,84.75
2022-08-26T02:49:51.815Z,84.98
2022-08-26T02:52:54.589Z,84.87
2022-08-26T02:55:57.540Z,85.50
2022-08-26T02:59:02.415Z,85.70
2022-08-26T03:02:07.382Z,86.10
2022-08-26T03:05:14.439Z,84.35
2022-08-26T03:08:20.217Z,85.95
2022-08-26T03:11:24.178Z,85.38
2022-08-26T03:14:27.750Z,86.14
2022-08-26T03:17:32.677Z,86.13
2022-08-26T03:20:38.823Z,86.23
2022-08-26T03:23:43.369Z,86.36
2022-08-26T03:26:52.052Z,87.14
2022-08-26T03:30:14.137Z,87.23
2022-08-26T03:33:17.970Z,87.79
2022-08-26T03:36:21.309Z,87.48
2022-08-26T03:39:24.235Z,86.97
2022-08-26T03:42:27.118Z,86.96
2022-08-26T03:45:30.453Z,87.64
2022-08-26T03:48:34.149Z,87.26
2022-08-26T03:51:39.098Z,88.22
2022-08-26T03:54:41.716Z,89.51
2022-08-26T03:57:46.534Z,88.67
2022-08-26T04:00:49.122Z,88.99
2022-08-26T04:04:00.571Z,88.09
2022-08-26T04:07:04.023Z,88.04
2022-08-26T04:10:08.172Z,87.82
2022-08-26T04:13:12.602Z,89.47
2022-08-26T04:16:17.693Z,87.91
2022-08-26T04:19:25.601Z,88.02
2022-08-26T04:22:29.384Z,87.95
2022-08-26T04:25:33.980Z,88.15
2022-08-26T04:28:51.925Z,87.38
2022-08-26T04:31:57.833Z,86.60
2022-08-26T04:35:07.701Z,85.85
2022-08-26T04:38:20.045Z,84.60
2022-08-26T04:41:24.167Z,83.79
2022-08-26T04:44:29.995Z,82.21
2022-08-26T04:47:34.460Z,81.01
2022-08-26T04:50:40.800Z,79.99
2022-08-26T04:53:47.237Z,79.40
2022-08-26T04:56:51.073Z,79.40
2022-08-26T04:59:54.537Z,78.73
2022-08-26T05:02:58.734Z,77.61
2022-08-26T05:06:05.589Z,76.55
2022-08-26T05:09:09.861Z,76.13
2022-08-26T05:12:12.871Z,74.42
2022-08-26T05:15:15.941Z,73.69
2022-08-26T05:18:22.843Z,72.84
2022-08-26T05:22:07.815Z,70.37
2022-08-26T05:26:17.246Z,66.03
2022-08-26T05:29:25.603Z,65.79
2022-08-26T05:32:28.861Z,65.36
2022-08-26T05:35:34.709Z,63.59
2022-08-26T05:38:38.422Z,63.09
2022-08-26T05:41:44.745Z,61.74
2022-08-26T05:49:03.975Z,63.43
2022-08-26T05:53:07.530Z,60.27
2022-08-26T06:01:19.709Z,58.88
2022-08-26T06:04:51.933Z,55.76
2022-08-26T06:08:21.420Z,55.94
2022-08-26T06:11:25.701Z,55.42
2022-08-26T06:14:28.631Z,54.80
2022-08-26T06:17:34.070Z,55.74
2022-08-26T06:20:43.612Z,54.92
2022-08-26T06:24:26.937Z,52.52
2022-08-26T06:27:32.654Z,51.25
2022-08-26T06:30:40.599Z,50.33
2022-08-26T06:33:44.734Z,49.26
2022-08-26T06:36:49.443Z,48.42
2022-08-26T06:39:59.147Z,46.98
2022-08-26T06:43:02.367Z,46.10
2022-08-26T06:46:09.500Z,45.38
2022-08-26T06:49:14.889Z,42.75
2022-08-26T06:52:24.297Z,41.61
2022-08-26T06:55:28.414Z,40.51
2022-08-26T06:58:32.722Z,39.20
2022-08-26T07:01:39.226Z,39.12
2022-08-26T07:04:48.466Z,37.16
2022-08-26T07:07:54.552Z,37.05
2022-08-26T07:11:25.086Z,38.00
2022-08-26T07:14:28.986Z,36.07
2022-08-26T07:17:32.663Z,37.54
2022-08-26T07:20:42.292Z,38.04
2022-08-26T07:23:45.787Z,35.81
2022-08-26T07:26:49.872Z,35.04
2022-08-26T07:29:57.227Z,35.50
2022-08-26T07:33:03.863Z,34.54
2022-08-26T07:36:08.682Z,34.23
2022-08-26T07:39:13.617Z,31.55
2022-08-26T07:42:19.758Z,32.91
2022-08-26T07:45:26.661Z,35.15
2022-08-26T07:48:56.603Z,33.53
2022-08-26T07:52:57.842Z,30.29
2022-08-26T07:56:06.787Z,29.20
2022-08-26T07:59:14.070Z,30.49
2022-08-26T08:02:18.301Z,30.98
2022-08-26T08:05:23.397Z,30.13
2022-08-26T08:08:37.272Z,29.96
2022-08-26T08:11:41.503Z,26.78
2022-08-26T08:14:50.929Z,29.75
2022-08-26T08:18:00.230Z,29.66
2022-08-26T08:25:10.564Z,28.57
2022-08-26T08:28:15.977Z,28.10
2022-08-26T08:31:38.734Z,27.77
2022-08-26T08:34:44.543Z,28.70
2022-08-26T08:37:47.370Z,26.26
2022-08-26T08:40:50.552Z,25.00
2022-08-26T08:43:54.439Z,25.36
2022-08-26T08:47:12.933Z,25.63
2022-08-26T08:58:48.260Z,27.32
2022-08-26T09:01:54.077Z,25.98
2022-08-26T09:05:16.731Z,26.58
2022-08-26T09:08:30.352Z,27.87
2022-08-26T09:11:36.454Z,28.56
2022-08-26T09:14:40.607Z,27.66
2022-08-26T09:18:06.336Z,26.60
2022-08-26T09:21:17.899Z,25.99
2022-08-26T09:24:22.310Z,26.14
2022-08-26T09:27:46.186Z,26.00
2022-08-26T09:31:13.213Z,27.46
2022-08-26T09:34:28.071Z,24.64
2022-08-26T09:37:40.606Z,26.40
2022-08-26T09:40:59.090Z,25.54
2022-08-26T09:59:11.008Z,24.36
2022-08-26T10:02:32.521Z,24.48
2022-08-26T10:05:51.469Z,22.33
2022-08-26T10:09:02.758Z,23.73
2022-08-26T10:12:22.269Z,24.46
2022-08-26T10:15:28.199Z,23.93
2022-08-26T10:18:40.152Z,23.53
2022-08-26T10:21:58.769Z,23.92
2022-08-26T10:25:34.460Z,24.78
2022-08-26T10:28:44.396Z,23.25
2022-08-26T10:31:52.144Z,24.47
2022-08-26T10:34:55.151Z,24.32
2022-08-26T10:38:04.770Z,25.24
2022-08-26T10:41:16.997Z,23.02
2022-08-26T10:44:23.814Z,23.61
2022-08-26T10:48:07.294Z,22.84
2022-08-26T10:51:13.414Z,21.98
2022-08-26T10:55:35.692Z,22.07
2022-08-26T10:58:41.722Z,21.50
2022-08-26T11:01:58.130Z,24.21
2022-08-26T11:05:05.567Z,23.60
2022-08-26T11:08:29.797Z,23.82
2022-08-26T11:12:10.067Z,22.91
2022-08-26T11:15:24.546Z,24.18
2022-08-26T11:18:42.890Z,23.11
2022-08-26T11:22:06.057Z,23.49
2022-08-26T11:25:11.685Z,24.42
2022-08-26T11:28:34.713Z,23.12
2022-08-26T11:31:40.410Z,23.70
2022-08-26T11:34:57.068Z,23.87
2022-08-26T11:38:28.815Z,24.14
2022-08-26T11:41:33.599Z,24.67
2022-08-26T11:44:49.033Z,23.31
2022-08-26T11:47:53.058Z,22.93
2022-08-26T11:51:06.913Z,23.39
2022-08-26T11:54:16.410Z,22.73
2022-08-26T11:57:19.697Z,22.89
2022-08-26T12:00:34.630Z,23.40
2022-08-26T12:03:45.484Z,24.19
2022-08-26T12:06:54.007Z,22.74
2022-08-26T12:10:04.967Z,21.41
2022-08-26T12:13:25.072Z,22.21
2022-08-26T12:16:32.956Z,23.81
2022-08-26T12:19:36.606Z,24.28
2022-08-26T12:22:43.522Z,23.46
2022-08-26T12:26:05.950Z,25.56
2022-08-26T12:29:27.261Z,25.79
2022-08-26T12:32:35.596Z,26.51
2022-08-26T12:46:36.413Z,23.52
2022-08-26T12:49:47.966Z,24.20
2022-08-26T13:02:09.508Z,24.78
2022-08-26T13:05:22.109Z,25.59
2022-08-26T13:08:28.280Z,24.42
2022-08-26T13:11:33.779Z,25.17
2022-08-26T13:14:40.576Z,25.39
2022-08-26T13:17:58.414Z,25.07
2022-08-26T13:21:12.333Z,25.10
2022-08-26T13:24:43.909Z,26.22
2022-08-26T13:27:54.156Z,24.84
2022-08-26T13:30:58.001Z,24.64
2022-08-26T13:34:00.923Z,24.05
2022-08-26T13:37:04.832Z,24.50
2022-08-26T13:40:08.559Z,24.57
2022-08-26T13:43:13.968Z,24.63
2022-08-26T13:46:37.152Z,24.93
2022-08-26T13:49:42.592Z,24.98
2022-08-26T13:52:45.345Z,24.68
2022-08-26T13:55:49.262Z,24.82
2022-08-26T13:58:54.298Z,24.79
2022-08-26T14:01:58.991Z,24.53
2022-08-26T14:05:02.622Z,24.31
2022-08-26T14:08:07.506Z,24.63
2022-08-26T14:11:12.076Z,24.98
2022-08-26T14:14:14.700Z,25.11
2022-08-26T14:17:22.866Z,24.98
2022-08-26T14:20:29.151Z,25.82
2022-08-26T14:23:33.040Z,25.37
2022-08-26T14:26:37.643Z,24.85
2022-08-26T14:29:42.371Z,25.21
2022-08-26T14:32:48.919Z,24.83
2022-08-26T14:35:52.412Z,25.17
2022-08-26T14:38:56.812Z,24.79
2022-08-26T14:42:00.733Z,25.28
2022-08-26T14:45:07.207Z,25.91
2022-08-26T14:48:11.113Z,26.25
2022-08-26T14:51:14.049Z,25.97
2022-08-26T14:59:01.386Z,26.49
2022-08-26T15:02:07.768Z,27.38
2022-08-26T15:05:11.684Z,27.76
2022-08-26T15:08:14.892Z,27.86
2022-08-26T15:11:18.441Z,28.51
2022-08-26T15:14:22.573Z,27.96
2022-08-26T15:17:26.369Z,27.56
2022-08-26T15:20:29.458Z,27.63
2022-08-26T15:23:35.217Z,28.20
2022-08-26T15:26:38.825Z,28.07
2022-08-26T15:29:41.775Z,28.75
2022-08-26T15:32:44.708Z,28.38
2022-08-26T15:35:47.328Z,28.75
2022-08-26T15:38:50.478Z,29.09
2022-08-26T15:41:56.154Z,28.83
2022-08-26T15:44:59.647Z,29.38
2022-08-26T15:48:03.548Z,29.00
2022-08-26T15:51:18.463Z,28.96
2022-08-26T15:54:23.208Z,29.86
2022-08-26T15:57:26.355Z,30.14
2022-08-26T16:00:29.479Z,29.84
2022-08-26T16:03:32.527Z,30.20
2022-08-26T16:06:37.863Z,31.02
2022-08-26T16:09:40.799Z,31.45
2022-08-26T16:12:43.961Z,32.18
2022-08-26T16:16:13.004Z,32.97
2022-08-26T16:19:15.880Z,32.92
2022-08-26T16:22:19.057Z,32.74
2022-08-26T16:25:22.570Z,32.17
2022-08-26T16:28:26.508Z,32.03
2022-08-26T16:31:29.943Z,32.10
2022-08-26T16:34:33.171Z,32.65
2022-08-26T16:37:39.024Z,33.40
2022-08-26T16:40:42.404Z,33.85
2022-08-26T16:43:45.453Z,34.67
2022-08-26T16:46:48.802Z,35.36
2022-08-26T16:49:54.674Z,35.79
2022-08-26T16:57:42.916Z,36.03
2022-08-26T17:04:36.451Z,36.10
2022-08-26T17:08:01.131Z,36.06
2022-08-26T17:11:04.291Z,36.47
2022-08-26T17:14:43.657Z,36.39
2022-08-26T17:18:10.991Z,36.42
2022-08-26T17:21:54.652Z,36.75
2022-08-26T17:25:25.884Z,37.00
2022-08-26T17:28:53.193Z,37.44
2022-08-26T17:40:35.919Z,37.78
2022-08-26T17:43:41.235Z,38.34
2022-08-26T17:46:43.918Z,38.42
2022-08-26T17:49:47.137Z,38.59
2022-08-26T17:56:55.184Z,39.55
2022-08-26T18:00:00.601Z,39.65
2022-08-26T18:03:04.094Z,40.20
2022-08-26T18:06:25.084Z,41.12
2022-08-26T18:09:35.188Z,41.17
2022-08-26T18:12:38.187Z,41.23
2022-08-26T18:15:43.080Z,41.60
2022-08-26T18:18:47.895Z,41.52
2022-08-26T18:26:26.800Z,41.87
2022-08-26T18:29:29.835Z,42.37
2022-08-26T18:32:32.425Z,42.43
2022-08-26T18:35:45.276Z,42.07
2022-08-26T18:38:50.415Z,42.83
2022-08-26T18:41:53.616Z,42.64
2022-08-26T18:44:56.409Z,42.97
2022-08-26T18:47:59.541Z,43.12
2022-08-26T18:51:02.312Z,43.20
2022-08-26T18:54:08.287Z,43.46
2022-08-26T18:57:12.140Z,44.30
2022-08-26T19:00:15.669Z,44.13
2022-08-26T19:03:19.269Z,44.68
2022-08-26T19:06:23.982Z,43.99
2022-08-26T19:09:27.261Z,44.79
2022-08-26T19:12:30.542Z,44.82
2022-08-26T19:15:41.281Z,44.47
2022-08-26T19:18:45.318Z,44.85
2022-08-26T19:21:52.996Z,45.32
2022-08-26T19:29:34.493Z,47.15
2022-08-26T19:32:38.332Z,47.08
2022-08-26T19:35:47.756Z,47.62
2022-08-26T19:46:45.964Z,49.08
2022-08-26T19:49:54.312Z,48.00
2022-08-26T19:52:56.975Z,48.53
2022-08-26T19:55:59.896Z,47.87
2022-08-26T19:59:03.592Z,47.11
2022-08-26T20:02:11.066Z,46.98
2022-08-26T20:05:16.145Z,47.98
2022-08-26T20:08:22.408Z,48.22
2022-08-26T20:11:26.217Z,48.23
2022-08-26T20:14:48.723Z,49.28
2022-08-26T20:17:52.378Z,48.91
2022-08-26T20:21:13.878Z,50.52
2022-08-26T20:24:19.942Z,49.38
2022-08-26T20:27:47.336Z,49.44
2022-08-26T20:30:50.919Z,48.14
2022-08-26T20:33:54.525Z,48.26
2022-08-26T20:36:57.956Z,48.98
2022-08-26T20:40:01.211Z,49.41
2022-08-26T20:43:06.050Z,48.72
2022-08-26T20:46:17.954Z,49.88
2022-08-26T20:49:22.656Z,52.10
2022-08-26T20:52:25.820Z,50.94
2022-08-26T20:55:29.736Z,49.20
2022-08-26T20:58:34.711Z,50.75
2022-08-26T21:01:42.403Z,50.53
2022-08-26T21:04:45.328Z,49.63
2022-08-26T21:07:48.425Z,50.14
2022-08-26T21:10:52.121Z,50.53
2022-08-26T21:14:16.762Z,50.95
2022-08-26T21:17:20.935Z,50.81
2022-08-26T21:20:24.641Z,51.74
2022-08-26T21:23:47.748Z,51.58
2022-08-26T21:26:51.888Z,52.90
2022-08-26T21:29:54.815Z,52.59
2022-08-26T21:33:40.945Z,52.47
2022-08-26T21:37:09.023Z,53.24
2022-08-26T21:40:19.497Z,53.18
2022-08-26T21:43:35.105Z,53.41
2022-08-26T21:46:38.604Z,54.16
2022-08-26T21:49:41.303Z,53.62
2022-08-26T21:52:46.594Z,53.88
2022-08-26T21:55:49.394Z,54.79
2022-08-26T21:58:55.029Z,55.50
2022-08-26T22:01:58.867Z,55.88
2022-08-26T22:05:02.147Z,56.52
2022-08-26T22:08:04.846Z,57.00
2022-08-26T22:11:09.533Z,57.20
2022-08-26T22:14:12.575Z,57.56
2022-08-26T22:17:17.186Z,57.39
2022-08-26T22:20:20.048Z,58.03
2022-08-26T22:23:23.913Z,58.08
2022-08-26T22:26:30.383Z,57.56
2022-08-26T22:29:33.391Z,57.69
2022-08-26T22:32:39.549Z,58.28
2022-08-26T22:35:48.345Z,58.00
2022-08-26T22:38:51.232Z,57.87
2022-08-26T22:41:55.252Z,58.22
2022-08-26T22:44:58.255Z,59.01
2022-08-26T22:48:05.113Z,58.29
2022-08-26T22:51:07.800Z,60.02
2022-08-26T22:54:11.354Z,58.99
2022-08-26T22:57:14.004Z,59.22
2022-08-26T23:00:17.006Z,59.28
2022-08-26T23:03:20.755Z,60.23
2022-08-26T23:06:25.626Z,60.33
2022-08-26T23:09:29.265Z,59.17
2022-08-26T23:12:32.578Z,60.45
2022-08-26T23:15:36.320Z,60.75
2022-08-26T23:18:40.849Z,60.87
2022-08-26T23:21:43.911Z,61.40
2022-08-26T23:24:46.798Z,60.73
2022-08-26T23:27:50.234Z,61.05
2022-08-26T23:30:53.942Z,61.06
2022-08-26T23:34:15.046Z,61.91
2022-08-26T23:37:19.678Z,61.89
2022-08-26T23:40:27.109Z,62.09
2022-08-26T23:43:30.213Z,61.23
2022-08-26T23:46:33.922Z,61.79
2022-08-26T23:49:37.340Z,61.40
2022-08-26T23:52:58.733Z,60.96
2022-08-26T23:56:01.693Z,61.25
2022-08-26T23:59:04.520Z,60.93
